Time;durP1;ratioP1;P1;durP2;ratioP2;P2;SDS_P1;SDS_P2;PMS_P1;PMS_P2;Temp;Humidity;BMP_temperature;BMP_pressure;BME280_temperature;BME280_humidity;BME280_pressure;Samples;Min_cycle;Max_cycle;Signal;HPM_P1;HPM_P2
2021/12/18 00:01:20;;;;;;;47.40;29.20;;;11.90;73.60;;;;;;5012042;28;20438;-52
2021/12/18 00:03:47;;;;;;;43.42;26.77;;;11.90;73.60;;;;;;5008753;28;20064;-51
2021/12/18 00:06:16;;;;;;;46.70;28.02;;;11.90;73.70;;;;;;5014148;28;20049;-50
2021/12/18 00:08:44;;;;;;;43.75;27.23;;;11.90;73.80;;;;;;5001438;28;20181;-48
2021/12/18 00:11:11;;;;;;;45.60;26.95;;;11.90;73.80;;;;;;5005532;28;20049;-48
2021/12/18 00:13:40;;;;;;;47.83;28.17;;;11.90;73.90;;;;;;5007764;28;20100;-50
2021/12/18 00:16:07;;;;;;;44.00;29.02;;;11.90;73.90;;;;;;5015329;28;20042;-48
2021/12/18 00:18:35;;;;;;;43.20;26.27;;;11.90;73.80;;;;;;5024484;28;20095;-48
2021/12/18 00:21:04;;;;;;;43.28;26.98;;;11.90;73.80;;;;;;5006376;28;20132;-48
2021/12/18 00:23:31;;;;;;;46.28;28.55;;;11.90;73.80;;;;;;5024913;28;20029;-50
2021/12/18 00:25:57;;;;;;;45.28;29.40;;;11.90;73.80;;;;;;5021162;28;20116;-48
2021/12/18 00:28:24;;;;;;;41.58;28.52;;;11.90;73.70;;;;;;5012691;28;20390;-49
2021/12/18 00:30:51;;;;;;;42.13;27.40;;;11.90;73.70;;;;;;5013761;28;20041;-49
2021/12/18 00:33:18;;;;;;;41.28;25.15;;;11.90;73.70;;;;;;5021236;28;20494;-48
2021/12/18 00:35:45;;;;;;;44.55;27.17;;;11.90;73.80;;;;;;5031407;28;20646;-49
2021/12/18 00:38:12;;;;;;;40.17;25.10;;;11.90;73.80;;;;;;5030798;28;20041;-51
2021/12/18 00:41:00;;;;;;;37.70;24.65;;;12.00;73.90;;;;;;5009629;28;20453;-47
2021/12/18 00:43:32;;;;;;;40.33;25.60;;;11.90;73.90;;;;;;5022348;28;20069;-48
2021/12/18 00:45:59;;;;;;;42.72;26.30;;;11.90;73.80;;;;;;5012175;28;20053;-51
2021/12/18 00:48:26;;;;;;;45.03;27.52;;;11.90;73.70;;;;;;4997016;28;20054;-49
2021/12/18 00:50:55;;;;;;;44.05;27.38;;;11.90;73.70;;;;;;5003998;28;20049;-51
2021/12/18 00:53:22;;;;;;;42.80;28.05;;;11.90;73.60;;;;;;5029604;28;20107;-52
2021/12/18 00:55:51;;;;;;;40.58;24.88;;;11.90;73.60;;;;;;5031249;28;20049;-49
2021/12/18 00:58:18;;;;;;;43.20;26.63;;;11.90;73.70;;;;;;5009156;28;20494;-49
2021/12/18 01:00:46;;;;;;;42.22;27.42;;;11.90;73.60;;;;;;5022861;28;20045;-47
2021/12/18 01:03:19;;;;;;;43.83;26.73;;;11.90;73.60;;;;;;5014482;28;20755;-51
2021/12/18 01:05:47;;;;;;;40.22;26.98;;;11.90;73.60;;;;;;5000276;28;20113;-49
2021/12/18 01:08:14;;;;;;;43.40;26.10;;;11.90;73.70;;;;;;5009595;28;20045;-51
2021/12/18 01:13:19;;;;;;;40.60;26.08;;;11.90;73.70;;;;;;5031509;28;20052;-49
2021/12/18 01:15:50;;;;;;;42.25;25.58;;;12.00;73.60;;;;;;5019545;28;20042;-48
2021/12/18 01:23:48;;;;;;;42.60;26.85;;;11.90;73.60;;;;;;5001423;28;20046;-50
2021/12/18 01:26:16;;;;;;;41.97;26.38;;;11.90;73.60;;;;;;5009427;28;20112;-50
2021/12/18 01:28:43;;;;;;;39.60;28.33;;;11.90;73.60;;;;;;5013362;28;20076;-49
2021/12/18 01:31:10;;;;;;;39.72;24.92;;;11.90;73.60;;;;;;5026382;28;20048;-48
2021/12/18 01:33:37;;;;;;;40.53;26.38;;;11.90;73.60;;;;;;5022319;28;20440;-50
2021/12/18 01:36:04;;;;;;;42.75;26.75;;;11.90;73.70;;;;;;5008596;28;20397;-50
2021/12/18 01:38:31;;;;;;;43.15;25.83;;;11.90;73.70;;;;;;5020812;28;20076;-52
2021/12/18 01:41:00;;;;;;;43.08;26.15;;;11.90;73.80;;;;;;5022168;28;20519;-48
2021/12/18 01:52:02;;;;;;;46.20;27.17;;;11.90;73.60;;;;;;5011148;28;20100;-48
2021/12/18 01:54:29;;;;;;;36.50;23.48;;;11.90;73.60;;;;;;4988583;28;20449;-51
2021/12/18 01:56:59;;;;;;;42.65;25.23;;;11.90;73.60;;;;;;5018517;28;20060;-51
2021/12/18 01:59:43;;;;;;;40.05;25.23;;;11.90;73.50;;;;;;5022764;28;20457;-51
2021/12/18 02:02:11;;;;;;;37.50;25.25;;;11.90;73.50;;;;;;5012618;28;20092;-48
2021/12/18 02:04:38;;;;;;;39.50;23.05;;;11.90;73.70;;;;;;5013220;28;20461;-50
2021/12/18 02:07:07;;;;;;;37.97;24.02;;;11.90;73.80;;;;;;5019834;28;20037;-52
2021/12/18 02:12:18;;;;;;;35.72;22.55;;;11.90;73.80;;;;;;5008473;28;20101;-48
2021/12/18 02:20:23;;;;;;;35.35;23.17;;;11.90;73.90;;;;;;4990749;28;20125;-48
2021/12/18 02:22:51;;;;;;;41.50;24.58;;;11.90;73.90;;;;;;4983027;28;20052;-50
2021/12/18 02:25:20;;;;;;;36.20;23.65;;;11.90;73.90;;;;;;5021391;28;20067;-47
2021/12/18 02:27:48;;;;;;;39.08;23.40;;;11.90;73.90;;;;;;5022692;28;20041;-47
2021/12/18 02:30:16;;;;;;;36.67;23.88;;;11.90;73.90;;;;;;5030128;28;20069;-48
2021/12/18 02:32:43;;;;;;;38.72;24.77;;;11.90;74.00;;;;;;5009917;28;20075;-48
2021/12/18 02:35:29;;;;;;;35.75;23.35;;;11.90;74.00;;;;;;5019749;28;20049;-48
2021/12/18 02:38:11;;;;;;;40.40;23.05;;;11.90;73.80;;;;;;5016656;28;20079;-52
2021/12/18 02:40:59;;;;;;;40.30;24.33;;;11.90;73.80;;;;;;5012141;28;20045;-48
2021/12/18 02:43:32;;;;;;;35.53;22.15;;;11.90;73.90;;;;;;5017019;28;20053;-52
2021/12/18 02:46:00;;;;;;;39.70;23.52;;;11.90;73.90;;;;;;5024681;28;20045;-50
2021/12/18 02:48:29;;;;;;;38.90;24.08;;;11.90;73.90;;;;;;5027257;28;20042;-51
2021/12/18 02:50:56;;;;;;;37.88;21.25;;;11.90;73.90;;;;;;5010175;28;20044;-48
2021/12/18 02:53:24;;;;;;;40.97;23.25;;;11.90;74.00;;;;;;5024113;28;20045;-50
2021/12/18 02:56:03;;;;;;;39.28;23.40;;;11.90;74.00;;;;;;5022344;28;20049;-48
2021/12/18 02:58:41;;;;;;;41.55;23.92;;;11.90;74.00;;;;;;5021905;28;20097;-51
2021/12/18 03:01:11;;;;;;;36.00;22.38;;;11.90;74.00;;;;;;5021228;28;20041;-48
2021/12/18 03:03:40;;;;;;;36.42;22.60;;;11.90;74.00;;;;;;5021346;28;20083;-48
2021/12/18 03:22:52;;;;;;;41.45;23.85;;;11.90;74.10;;;;;;5019644;28;20738;-48
2021/12/18 03:25:22;;;;;;;40.90;25.00;;;11.90;74.20;;;;;;5023258;28;20045;-51
2021/12/18 03:27:50;;;;;;;41.47;21.90;;;11.90;74.30;;;;;;5012589;28;20493;-50
2021/12/18 03:30:19;;;;;;;44.80;24.63;;;11.90;74.40;;;;;;5016249;28;20037;-50
2021/12/18 03:32:46;;;;;;;36.33;22.88;;;11.80;74.50;;;;;;5020601;28;20116;-48
2021/12/18 03:35:14;;;;;;;40.90;22.92;;;11.90;74.60;;;;;;5029671;28;20448;-52
2021/12/18 03:37:42;;;;;;;39.20;22.45;;;11.80;74.70;;;;;;5016539;28;20096;-47
2021/12/18 03:40:13;;;;;;;39.58;23.67;;;11.80;74.70;;;;;;5018263;28;20405;-48
2021/12/18 03:42:39;;;;;;;39.42;22.35;;;11.90;74.80;;;;;;5028951;28;20041;-52
2021/12/18 03:45:08;;;;;;;38.20;22.52;;;11.80;74.80;;;;;;5021668;28;20162;-48
2021/12/18 03:47:35;;;;;;;38.95;21.40;;;11.80;74.80;;;;;;5008282;28;20050;-51
2021/12/18 03:50:03;;;;;;;43.08;23.27;;;11.80;74.80;;;;;;5018417;28;20121;-48
2021/12/18 03:52:29;;;;;;;45.90;23.63;;;11.80;74.80;;;;;;5024805;28;20459;-49
2021/12/18 03:54:56;;;;;;;44.67;24.38;;;11.80;74.80;;;;;;5028434;28;20575;-51
2021/12/18 03:57:23;;;;;;;48.70;25.98;;;11.80;74.90;;;;;;5020479;28;20119;-51
2021/12/18 03:59:52;;;;;;;48.90;25.15;;;11.80;75.10;;;;;;5024297;28;20037;-48
2021/12/18 04:02:19;;;;;;;52.20;26.75;;;11.80;75.10;;;;;;5032759;28;20447;-49
2021/12/18 04:04:46;;;;;;;46.45;25.17;;;11.80;75.20;;;;;;5023911;28;20041;-50
2021/12/18 04:07:16;;;;;;;46.33;24.55;;;11.80;75.10;;;;;;5007739;28;20076;-51
2021/12/18 04:09:43;;;;;;;45.92;23.63;;;11.80;75.10;;;;;;5005113;28;20034;-51
2021/12/18 04:12:10;;;;;;;45.53;24.48;;;11.80;75.10;;;;;;5012604;28;20107;-48
2021/12/18 04:14:37;;;;;;;44.65;24.25;;;11.80;75.10;;;;;;5014425;28;20107;-51
2021/12/18 04:17:05;;;;;;;46.40;26.25;;;11.80;75.10;;;;;;5020546;28;20042;-50
2021/12/18 04:19:32;;;;;;;43.55;24.05;;;11.80;75.20;;;;;;5031653;28;20136;-48
2021/12/18 04:21:59;;;;;;;48.45;25.08;;;11.80;75.20;;;;;;5027210;28;20042;-49
2021/12/18 04:24:26;;;;;;;50.40;28.02;;;11.80;75.50;;;;;;5017904;28;20645;-51
2021/12/18 04:26:52;;;;;;;50.80;25.98;;;11.80;75.40;;;;;;5014556;28;20065;-47
2021/12/18 04:29:19;;;;;;;46.92;25.42;;;11.90;75.50;;;;;;5012141;28;20096;-51
2021/12/18 04:31:46;;;;;;;48.35;25.35;;;11.80;75.40;;;;;;5011943;28;20096;-48
2021/12/18 04:34:13;;;;;;;48.25;24.92;;;11.80;75.50;;;;;;5013759;28;20041;-51
2021/12/18 04:36:39;;;;;;;49.50;26.52;;;11.80;75.60;;;;;;5045952;22;20049;-44
2021/12/18 04:39:06;;;;;;;50.35;25.63;;;11.90;75.60;;;;;;5042790;28;20076;-45
2021/12/18 04:41:43;;;;;;;47.65;25.30;;;11.90;75.50;;;;;;5049773;28;20500;-44
2021/12/18 04:44:10;;;;;;;55.15;27.08;;;11.90;75.50;;;;;;5039470;28;20103;-49
2021/12/18 04:46:37;;;;;;;50.50;27.23;;;11.80;75.30;;;;;;5031825;28;20080;-44
2021/12/18 04:49:04;;;;;;;50.20;25.17;;;11.90;75.40;;;;;;5027108;28;20037;-48
2021/12/18 04:51:31;;;;;;;48.80;26.70;;;11.90;75.40;;;;;;5023346;28;20065;-44
2021/12/18 04:53:58;;;;;;;47.78;26.60;;;11.90;75.40;;;;;;5029546;28;20033;-46
2021/12/18 04:56:27;;;;;;;56.70;28.58;;;11.90;75.40;;;;;;5023215;28;20072;-45
2021/12/18 04:58:54;;;;;;;49.58;25.33;;;11.90;75.40;;;;;;5031144;28;20433;-49
2021/12/18 05:01:21;;;;;;;54.80;27.40;;;11.80;75.40;;;;;;5019618;28;20104;-49
2021/12/18 05:03:49;;;;;;;48.53;25.52;;;11.90;75.40;;;;;;5019342;28;20053;-49
2021/12/18 05:06:16;;;;;;;52.60;27.33;;;11.80;75.40;;;;;;5024708;28;20088;-46
2021/12/18 05:08:43;;;;;;;58.75;29.85;;;11.80;75.40;;;;;;5001427;28;20070;-46
2021/12/18 05:11:10;;;;;;;55.80;29.25;;;11.80;75.40;;;;;;5026360;28;20049;-45
2021/12/18 05:13:36;;;;;;;49.10;28.48;;;11.80;75.50;;;;;;5023585;28;20069;-46
2021/12/18 05:16:03;;;;;;;53.92;29.60;;;11.80;75.50;;;;;;5018064;28;20045;-49
2021/12/18 05:18:30;;;;;;;54.53;27.50;;;11.80;75.50;;;;;;4993127;28;20200;-47
2021/12/18 05:20:57;;;;;;;54.97;28.63;;;11.80;75.50;;;;;;5014299;28;20069;-46
2021/12/18 05:23:24;;;;;;;51.58;28.60;;;11.80;75.50;;;;;;5022313;28;20042;-45
2021/12/18 05:25:50;;;;;;;65.05;32.25;;;11.80;75.50;;;;;;5018366;28;20042;-48
2021/12/18 05:28:17;;;;;;;61.50;30.63;;;11.80;75.60;;;;;;5011604;28;20034;-48
2021/12/18 05:30:44;;;;;;;58.78;30.30;;;11.80;75.60;;;;;;5010099;28;20037;-44
2021/12/18 05:33:11;;;;;;;59.53;30.98;;;11.80;75.70;;;;;;5029179;28;20088;-49
2021/12/18 05:35:39;;;;;;;59.58;29.92;;;11.80;75.70;;;;;;5022830;28;20496;-47
2021/12/18 05:38:06;;;;;;;47.90;26.85;;;11.80;75.80;;;;;;5031313;28;20071;-48
2021/12/18 05:40:37;;;;;;;56.53;29.83;;;11.80;75.80;;;;;;5016102;28;20445;-48
2021/12/18 05:43:06;;;;;;;58.35;29.20;;;11.80;75.90;;;;;;5024681;28;20409;-46
2021/12/18 05:45:33;;;;;;;61.35;30.65;;;11.80;75.90;;;;;;5029513;28;20041;-47
2021/12/18 05:48:00;;;;;;;57.47;28.38;;;11.80;76.00;;;;;;5031202;28;20041;-46
2021/12/18 05:50:29;;;;;;;55.33;30.35;;;11.70;76.00;;;;;;5022899;28;20041;-48
2021/12/18 05:52:59;;;;;;;59.47;28.42;;;11.80;76.00;;;;;;5025796;28;20042;-46
2021/12/18 05:55:28;;;;;;;51.58;25.90;;;11.80;76.10;;;;;;5010704;28;20077;-48
2021/12/18 05:57:55;;;;;;;48.22;25.75;;;11.80;76.10;;;;;;5005560;28;20033;-48
2021/12/18 06:00:23;;;;;;;52.03;27.27;;;11.80;76.20;;;;;;5019629;28;20111;-46
2021/12/18 06:02:51;;;;;;;56.40;28.77;;;11.80;76.20;;;;;;5012028;28;20489;-47
2021/12/18 06:05:18;;;;;;;59.42;28.58;;;11.80;76.20;;;;;;4999714;28;20088;-49
2021/12/18 06:07:56;;;;;;;57.15;28.23;;;11.80;76.30;;;;;;5008484;28;20128;-45
2021/12/18 06:10:33;;;;;;;57.28;29.40;;;11.80;76.30;;;;;;5011483;28;20042;-46
2021/12/18 06:13:02;;;;;;;56.30;30.80;;;11.80;76.30;;;;;;5029849;28;20041;-48
2021/12/18 06:15:30;;;;;;;56.22;30.60;;;11.80;76.40;;;;;;5020510;28;20140;-49
2021/12/18 06:17:57;;;;;;;60.92;30.52;;;11.80;76.40;;;;;;5007323;28;20049;-47
2021/12/18 06:20:26;;;;;;;58.70;30.45;;;11.80;76.40;;;;;;5029588;28;20529;-48
2021/12/18 06:22:53;;;;;;;61.35;31.45;;;11.80;76.40;;;;;;5021593;28;20562;-49
2021/12/18 06:25:20;;;;;;;61.13;29.98;;;11.80;76.50;;;;;;5005691;28;20695;-49
2021/12/18 06:27:47;;;;;;;56.33;28.70;;;11.80;76.40;;;;;;5029866;28;20037;-44
2021/12/18 06:30:17;;;;;;;60.22;30.83;;;11.80;76.30;;;;;;5020565;28;20456;-49
2021/12/18 06:32:44;;;;;;;57.08;27.95;;;11.80;76.30;;;;;;5030195;28;20049;-44
2021/12/18 06:35:11;;;;;;;59.53;28.75;;;11.80;76.30;;;;;;5015997;28;20045;-48
2021/12/18 06:37:38;;;;;;;49.55;27.10;;;11.80;76.30;;;;;;5016813;28;20069;-47
2021/12/18 06:40:06;;;;;;;51.28;27.73;;;11.80;76.30;;;;;;5022208;28;20037;-49
2021/12/18 06:42:39;;;;;;;55.97;27.45;;;11.80;76.20;;;;;;5029850;28;20041;-45
2021/12/18 06:45:08;;;;;;;55.78;29.38;;;11.80;76.20;;;;;;5018900;28;20040;-45
2021/12/18 06:47:35;;;;;;;47.63;26.10;;;11.80;76.20;;;;;;5030232;28;20037;-45
2021/12/18 06:50:04;;;;;;;54.90;27.63;;;11.80;76.20;;;;;;5026724;28;20120;-45
2021/12/18 06:52:31;;;;;;;46.55;24.15;;;11.80;76.20;;;;;;5001873;28;20065;-45
2021/12/18 06:54:58;;;;;;;50.92;25.42;;;11.70;76.20;;;;;;5020456;28;20062;-45
2021/12/18 06:57:25;;;;;;;46.83;23.85;;;11.80;76.30;;;;;;5029182;28;20076;-45
2021/12/18 06:59:52;;;;;;;42.90;23.73;;;11.80;76.40;;;;;;5023380;28;20440;-45
2021/12/18 07:02:19;;;;;;;48.33;23.85;;;11.70;76.30;;;;;;4987054;28;20092;-45
2021/12/18 07:04:46;;;;;;;42.90;22.00;;;11.70;76.30;;;;;;5024877;28;20540;-46
2021/12/18 07:07:14;;;;;;;45.72;23.02;;;11.70;76.30;;;;;;5015845;28;20456;-46
2021/12/18 07:09:41;;;;;;;44.25;23.27;;;11.70;76.40;;;;;;5006746;28;20462;-45
2021/12/18 07:12:10;;;;;;;47.47;23.02;;;11.70;76.50;;;;;;5008335;28;20038;-47
2021/12/18 07:14:40;;;;;;;46.40;22.47;;;11.70;76.50;;;;;;5016434;28;20083;-44
2021/12/18 07:17:07;;;;;;;42.80;21.98;;;11.70;76.60;;;;;;5022661;28;20046;-45
2021/12/18 07:19:34;;;;;;;47.85;22.15;;;11.70;76.40;;;;;;5028554;28;20083;-44
2021/12/18 07:22:04;;;;;;;46.33;21.98;;;11.70;76.50;;;;;;5017229;28;20106;-45
2021/12/18 07:24:30;;;;;;;44.88;21.77;;;11.70;76.60;;;;;;5011318;28;20063;-47
2021/12/18 07:26:57;;;;;;;45.13;21.33;;;11.60;76.70;;;;;;5012023;28;20038;-48
2021/12/18 07:29:26;;;;;;;42.95;21.98;;;11.60;76.70;;;;;;5008632;28;20073;-50
2021/12/18 07:31:53;;;;;;;44.15;21.55;;;11.60;76.90;;;;;;5025802;28;20084;-48
2021/12/18 07:34:20;;;;;;;45.40;22.10;;;11.60;76.90;;;;;;5025693;28;20496;-51
2021/12/18 07:36:47;;;;;;;39.45;21.25;;;11.70;77.00;;;;;;5006365;28;20049;-48
2021/12/18 07:39:14;;;;;;;46.08;23.15;;;11.70;77.00;;;;;;5032430;28;20099;-48
2021/12/18 07:41:41;;;;;;;49.22;21.42;;;11.60;77.00;;;;;;5006948;28;20310;-48
2021/12/18 07:44:08;;;;;;;49.00;24.02;;;11.70;77.00;;;;;;5025550;28;20494;-52
2021/12/18 07:46:36;;;;;;;46.95;21.75;;;11.70;77.10;;;;;;5005514;28;20793;-52
2021/12/18 07:49:03;;;;;;;46.50;21.60;;;11.70;77.70;;;;;;4992237;28;20050;-49
2021/12/18 07:51:30;;;;;;;48.22;23.90;;;11.70;77.00;;;;;;5004849;28;20042;-49
2021/12/18 07:53:57;;;;;;;43.88;22.63;;;11.70;77.00;;;;;;5008711;28;20034;-50
2021/12/18 07:56:25;;;;;;;46.60;21.85;;;11.70;77.00;;;;;;5005250;28;20042;-51
2021/12/18 07:58:53;;;;;;;43.67;22.20;;;11.70;77.00;;;;;;5002719;28;20088;-51
2021/12/18 08:01:20;;;;;;;44.45;21.67;;;11.70;77.00;;;;;;5010702;28;20042;-49
2021/12/18 08:03:47;;;;;;;45.42;22.58;;;11.80;77.00;;;;;;5007487;28;20053;-48
2021/12/18 08:06:15;;;;;;;43.03;21.38;;;11.80;77.10;;;;;;5008960;28;20065;-48
2021/12/18 08:08:41;;;;;;;48.45;23.35;;;11.80;77.00;;;;;;5002815;28;20730;-49
2021/12/18 08:11:08;;;;;;;44.95;22.05;;;11.80;77.00;;;;;;5006914;28;20046;-48
2021/12/18 08:13:35;;;;;;;45.65;22.73;;;11.80;77.00;;;;;;5002802;28;20046;-51
2021/12/18 08:16:02;;;;;;;45.15;21.33;;;11.80;77.00;;;;;;5008303;28;20069;-53
2021/12/18 08:18:29;;;;;;;46.25;23.75;;;11.80;77.00;;;;;;5002669;28;20468;-50
2021/12/18 08:20:57;;;;;;;37.97;20.13;;;11.80;77.00;;;;;;5005529;28;20049;-53
2021/12/18 08:23:24;;;;;;;46.03;22.50;;;11.90;77.10;;;;;;5002415;28;20048;-50
2021/12/18 08:25:52;;;;;;;40.70;21.63;;;11.90;77.00;;;;;;5012815;28;21175;-51
2021/12/18 08:28:19;;;;;;;41.33;20.88;;;11.90;76.90;;;;;;5000298;28;20124;-52
2021/12/18 08:30:46;;;;;;;43.28;21.40;;;11.90;76.80;;;;;;5017334;28;20046;-48
2021/12/18 08:33:13;;;;;;;42.50;21.33;;;11.90;76.80;;;;;;4988361;28;20057;-52
2021/12/18 08:35:40;;;;;;;45.88;22.20;;;11.90;76.80;;;;;;5007033;28;20095;-49
2021/12/18 08:38:07;;;;;;;40.25;20.83;;;11.90;76.80;;;;;;5001504;28;20050;-50
2021/12/18 08:40:35;;;;;;;40.75;21.40;;;12.00;76.80;;;;;;5007295;28;20117;-51
2021/12/18 08:43:02;;;;;;;41.08;19.65;;;12.00;76.80;;;;;;5008563;28;20812;-52
2021/12/18 08:45:30;;;;;;;35.92;19.67;;;12.00;76.70;;;;;;5008780;28;20041;-50
2021/12/18 08:47:57;;;;;;;44.20;21.30;;;12.00;76.70;;;;;;5003142;28;20054;-50
2021/12/18 08:50:24;;;;;;;40.63;18.67;;;12.00;76.70;;;;;;5017584;28;20038;-49
2021/12/18 08:52:51;;;;;;;46.10;20.60;;;12.00;76.70;;;;;;5009586;28;20088;-51
2021/12/18 08:55:19;;;;;;;36.17;20.52;;;12.00;76.70;;;;;;5006367;28;20069;-51
2021/12/18 08:57:47;;;;;;;36.03;19.17;;;12.00;76.50;;;;;;5009981;28;20459;-47
2021/12/18 09:00:16;;;;;;;36.20;17.88;;;12.00;76.50;;;;;;5013077;28;20045;-50
2021/12/18 09:02:46;;;;;;;42.03;18.83;;;12.10;76.60;;;;;;5004650;28;20077;-51
2021/12/18 09:05:14;;;;;;;42.55;20.38;;;12.10;76.60;;;;;;5008863;28;20037;-48
2021/12/18 09:07:42;;;;;;;34.33;16.85;;;12.10;76.50;;;;;;5002346;28;20065;-50
2021/12/18 09:10:09;;;;;;;34.38;17.75;;;12.10;76.40;;;;;;5010789;28;20516;-49
2021/12/18 09:12:36;;;;;;;38.30;19.15;;;12.10;76.50;;;;;;5007430;28;20047;-48
2021/12/18 09:15:03;;;;;;;28.23;16.17;;;12.20;76.50;;;;;;5009272;28;20038;-48
2021/12/18 09:17:30;;;;;;;32.60;17.40;;;12.20;76.50;;;;;;5003949;28;20049;-47
2021/12/18 09:19:57;;;;;;;31.80;15.32;;;12.20;76.40;;;;;;5019622;28;20493;-48
2021/12/18 09:22:24;;;;;;;30.60;16.17;;;12.20;76.40;;;;;;5007499;28;20042;-49
2021/12/18 09:24:50;;;;;;;31.25;16.50;;;12.20;76.40;;;;;;5009588;28;20096;-48
2021/12/18 09:27:17;;;;;;;32.50;16.40;;;12.20;76.30;;;;;;5014239;28;20046;-52
2021/12/18 09:29:45;;;;;;;28.80;15.98;;;12.20;76.20;;;;;;5022758;28;20500;-49
2021/12/18 09:32:12;;;;;;;28.95;13.18;;;12.30;76.20;;;;;;5032575;28;20536;-51
2021/12/18 09:34:38;;;;;;;28.08;13.80;;;12.30;76.10;;;;;;5009966;28;20472;-50
2021/12/18 09:37:05;;;;;;;29.88;14.52;;;12.20;76.10;;;;;;5017054;28;20101;-48
2021/12/18 09:39:32;;;;;;;31.95;16.05;;;12.30;76.20;;;;;;5018845;28;20049;-51
2021/12/18 09:41:59;;;;;;;30.75;16.75;;;12.30;76.20;;;;;;5011777;28;20045;-53
2021/12/18 09:44:32;;;;;;;27.30;16.10;;;12.30;76.20;;;;;;5015493;28;20037;-50
2021/12/18 09:46:59;;;;;;;29.45;14.70;;;12.30;76.20;;;;;;5025035;28;20553;-49
2021/12/18 09:49:27;;;;;;;26.15;14.55;;;12.40;76.20;;;;;;5016522;28;20555;-48
2021/12/18 09:51:53;;;;;;;28.70;14.23;;;12.40;76.00;;;;;;5027752;28;20038;-48
2021/12/18 09:54:21;;;;;;;30.52;15.27;;;12.40;75.90;;;;;;5010649;28;20075;-47
2021/12/18 09:56:48;;;;;;;32.25;15.40;;;12.40;75.90;;;;;;5021623;28;20048;-48
2021/12/18 09:59:14;;;;;;;31.65;14.25;;;12.40;75.90;;;;;;5031656;28;20057;-48
2021/12/18 10:01:41;;;;;;;28.30;14.48;;;12.40;75.90;;;;;;5018754;28;20041;-51
2021/12/18 10:04:36;;;;;;;27.25;14.57;;;12.40;75.90;;;;;;5020722;28;20861;-50
2021/12/18 10:07:19;;;;;;;32.88;15.40;;;12.40;75.70;;;;;;5008962;28;20076;-48
2021/12/18 10:09:48;;;;;;;30.20;14.85;;;12.40;75.70;;;;;;5011162;28;20049;-51
2021/12/18 10:12:27;;;;;;;28.20;14.65;;;12.40;75.70;;;;;;5016004;28;20045;-48
2021/12/18 10:15:00;;;;;;;30.27;15.23;;;12.50;75.90;;;;;;4992786;28;20080;-48
2021/12/18 10:17:39;;;;;;;30.55;15.38;;;12.50;76.00;;;;;;5030771;28;20099;-51
2021/12/18 10:20:09;;;;;;;34.25;15.13;;;12.50;75.90;;;;;;5011822;28;20087;-48
2021/12/18 10:22:44;;;;;;;28.70;14.82;;;12.50;75.90;;;;;;5013885;28;20392;-48
2021/12/18 10:25:13;;;;;;;27.65;14.07;;;12.50;76.00;;;;;;5024378;28;20621;-51
2021/12/18 10:27:42;;;;;;;27.60;12.55;;;12.50;75.80;;;;;;5023212;28;20042;-50
2021/12/18 10:30:09;;;;;;;23.55;12.95;;;12.50;75.80;;;;;;4992715;28;20451;-50
2021/12/18 10:32:36;;;;;;;24.83;11.95;;;12.50;75.70;;;;;;5003895;28;20559;-51
2021/12/18 10:35:04;;;;;;;23.95;13.65;;;12.50;75.70;;;;;;5009648;28;20092;-51
2021/12/18 10:37:34;;;;;;;28.77;13.68;;;12.50;75.70;;;;;;5011098;28;20042;-52
2021/12/18 10:40:07;;;;;;;26.67;13.40;;;12.60;75.80;;;;;;4995561;28;20050;-49
2021/12/18 10:42:35;;;;;;;27.75;12.80;;;12.60;75.80;;;;;;5019469;28;20101;-48
2021/12/18 10:45:22;;;;;;;25.98;12.85;;;12.60;75.90;;;;;;5005783;28;20046;-52
2021/12/18 10:47:56;;;;;;;20.98;11.35;;;12.60;75.70;;;;;;5008800;28;20038;-48
2021/12/18 10:50:29;;;;;;;22.55;12.13;;;12.60;75.20;;;;;;5001926;28;20046;-53
2021/12/18 10:52:57;;;;;;;;;;;12.60;75.50;;;;;;5010360;28;20030;-50
2021/12/18 10:55:30;;;;;;;16.90;9.45;;;12.70;75.50;;;;;;5007396;28;20536;-51
2021/12/18 10:57:58;;;;;;;19.77;9.75;;;12.60;74.90;;;;;;4999391;28;20050;-52
2021/12/18 11:00:42;;;;;;;16.20;10.15;;;12.70;75.10;;;;;;5004755;28;20073;-51
2021/12/18 11:03:21;;;;;;;22.45;12.82;;;12.70;74.90;;;;;;5018620;28;20050;-52
2021/12/18 11:06:04;;;;;;;26.75;14.82;;;12.70;75.20;;;;;;5003031;28;20041;-52
2021/12/18 11:08:32;;;;;;;33.15;14.93;;;12.70;75.10;;;;;;5010645;28;20096;-51
2021/12/18 11:13:38;;;;;;;28.02;14.20;;;12.70;75.20;;;;;;5006215;28;20033;-50
2021/12/18 11:13:51;;;;;;;28.70;14.43;;;12.70;75.20;;;;;;4994629;28;20049;-51
2021/12/18 11:16:19;;;;;;;31.85;14.02;;;12.70;75.20;;;;;;5007225;28;20069;-53
2021/12/18 11:18:47;;;;;;;29.17;14.77;;;12.70;75.30;;;;;;5015670;28;20108;-50
2021/12/18 11:21:14;;;;;;;31.40;15.77;;;12.70;75.30;;;;;;5003562;28;20374;-49
2021/12/18 11:23:51;;;;;;;27.45;16.25;;;12.70;75.30;;;;;;5021260;28;20038;-52
2021/12/18 11:26:21;;;;;;;27.70;14.15;;;12.70;75.10;;;;;;5004397;28;20034;-52
2021/12/18 11:28:50;;;;;;;27.42;14.38;;;12.70;75.20;;;;;;5013831;28;20053;-51
2021/12/18 11:31:18;;;;;;;30.90;17.10;;;12.70;75.10;;;;;;5010512;28;20076;-50
2021/12/18 11:33:45;;;;;;;26.20;13.60;;;12.70;75.20;;;;;;5029037;28;20046;-52
2021/12/18 11:36:12;;;;;;;22.83;13.93;;;12.70;75.30;;;;;;5001998;28;20037;-53
2021/12/18 11:38:41;;;;;;;24.65;14.63;;;12.70;75.10;;;;;;5024452;28;20056;-50
2021/12/18 11:41:15;;;;;;;27.02;14.27;;;12.70;75.10;;;;;;5001270;28;20046;-52
2021/12/18 11:43:46;;;;;;;21.52;13.23;;;12.70;75.10;;;;;;5008337;28;20053;-52
2021/12/18 11:46:34;;;;;;;28.23;15.13;;;12.70;75.20;;;;;;5005512;28;20046;-50
2021/12/18 11:49:07;;;;;;;25.50;14.32;;;12.70;74.80;;;;;;5000362;28;20469;-52
2021/12/18 11:51:35;;;;;;;26.90;14.48;;;12.70;75.00;;;;;;4997844;28;20038;-49
2021/12/18 11:54:23;;;;;;;27.08;15.23;;;12.70;75.00;;;;;;5005563;28;20069;-53
2021/12/18 11:56:51;;;;;;;32.38;19.52;;;12.60;75.00;;;;;;5001924;28;20042;-52
2021/12/18 11:59:39;;;;;;;34.70;19.90;;;12.60;75.10;;;;;;4999583;28;20928;-49
2021/12/18 12:02:08;;;;;;;28.65;17.65;;;12.70;75.00;;;;;;5006008;28;20046;-50
2021/12/18 12:04:57;;;;;;;32.30;19.27;;;12.60;75.10;;;;;;4997524;28;20473;-48
2021/12/18 12:07:26;;;;;;;28.58;18.30;;;12.60;74.90;;;;;;5003707;28;20034;-50
2021/12/18 12:10:13;;;;;;;26.83;16.45;;;12.60;75.10;;;;;;4997926;28;20050;-48
2021/12/18 12:13:06;;;;;;;28.45;15.25;;;12.60;75.10;;;;;;5010167;28;20378;-52
2021/12/18 12:15:33;;;;;;;25.13;14.30;;;12.60;75.20;;;;;;5007473;28;20579;-52
2021/12/18 12:18:04;;;;;;;22.92;13.15;;;12.60;75.00;;;;;;5008059;28;20109;-48
2021/12/18 12:20:41;;;;;;;21.33;12.18;;;12.60;74.80;;;;;;5001981;28;20033;-51
2021/12/18 12:23:10;;;;;;;21.48;11.82;;;12.60;74.80;;;;;;5007487;28;20045;-53
2021/12/18 12:25:44;;;;;;;17.13;10.18;;;12.60;74.50;;;;;;5008024;28;20722;-50
2021/12/18 12:28:18;;;;;;;21.38;12.18;;;12.60;74.40;;;;;;5006316;28;20050;-49
2021/12/18 12:30:53;;;;;;;18.05;11.07;;;12.50;74.40;;;;;;4983423;28;20123;-51
2021/12/18 12:33:33;;;;;;;16.98;11.18;;;12.50;74.40;;;;;;5009917;28;20042;-47
2021/12/18 12:36:03;;;;;;;18.88;11.60;;;12.50;74.30;;;;;;5003375;28;20049;-52
2021/12/18 12:38:41;;;;;;;18.75;11.32;;;12.40;74.10;;;;;;5004639;28;20042;-51
2021/12/18 12:41:27;;;;;;;18.83;11.15;;;12.40;74.10;;;;;;4999512;28;20191;-52
2021/12/18 12:43:58;;;;;;;15.82;11.60;;;12.30;74.40;;;;;;5012682;28;20045;-51
2021/12/18 12:46:27;;;;;;;18.95;11.75;;;12.30;74.70;;;;;;5006506;28;20038;-50
2021/12/18 12:49:15;;;;;;;17.00;11.35;;;12.30;74.80;;;;;;5000059;28;20092;-51
2021/12/18 12:52:01;;;;;;;18.40;11.73;;;12.20;74.70;;;;;;5012428;28;20052;-50
2021/12/18 12:54:52;;;;;;;16.70;10.73;;;12.20;74.80;;;;;;5007780;28;20041;-48
2021/12/18 12:57:22;;;;;;;20.60;11.52;;;12.20;74.50;;;;;;5002954;28;20049;-48
2021/12/18 12:59:51;;;;;;;18.38;10.52;;;12.10;74.40;;;;;;5001457;28;20049;-51
2021/12/18 13:02:18;;;;;;;14.15;9.70;;;12.10;74.50;;;;;;5010275;28;20050;-48
2021/12/18 13:04:45;;;;;;;15.02;9.30;;;12.10;74.60;;;;;;5012519;28;20042;-52
2021/12/18 13:07:11;;;;;;;15.15;9.05;;;12.00;74.70;;;;;;5008604;28;20092;-48
2021/12/18 13:09:46;;;;;;;13.75;9.25;;;12.00;74.80;;;;;;5005621;28;20034;-48
2021/12/18 13:12:13;;;;;;;16.45;9.48;;;12.00;74.90;;;;;;5022597;28;20037;-52
2021/12/18 13:14:42;;;;;;;14.02;8.60;;;12.00;75.10;;;;;;5010367;28;20071;-48
2021/12/18 13:17:19;;;;;;;12.98;7.53;;;12.00;75.00;;;;;;5009588;28;20042;-49
2021/12/18 13:19:55;;;;;;;12.98;8.10;;;12.00;75.00;;;;;;5003718;28;20092;-48
2021/12/18 13:22:27;;;;;;;12.05;7.50;;;12.00;75.30;;;;;;5012887;28;20041;-49